createdAt,value
2018-03-20T00:02:16.345Z,64.83
2018-03-20T00:04:44.103Z,64.81
2018-03-20T00:07:11.868Z,64.82
2018-03-20T00:09:39.551Z,64.82
2018-03-20T00:12:07.296Z,65.21
2018-03-20T00:14:34.981Z,65.28
2018-03-20T00:17:02.723Z,65.58
2018-03-20T00:19:30.408Z,65.76
2018-03-20T00:21:58.121Z,65.80
2018-03-20T00:24:25.800Z,65.64
2018-03-20T00:26:53.504Z,65.64
2018-03-20T00:29:21.191Z,65.63
2018-03-20T00:31:48.895Z,65.60
2018-03-20T00:34:16.673Z,65.68
2018-03-20T00:36:44.381Z,65.92
2018-03-20T00:39:12.067Z,66.27
2018-03-20T00:41:39.777Z,66.11
2018-03-20T00:44:07.464Z,66.13
2018-03-20T00:46:35.193Z,66.33
2018-03-20T00:49:02.880Z,66.33
2018-03-20T00:51:30.609Z,66.42
2018-03-20T00:53:58.384Z,66.59
2018-03-20T00:56:26.089Z,66.59
2018-03-20T00:58:53.791Z,66.69
2018-03-20T01:01:21.575Z,66.71
2018-03-20T01:03:49.444Z,66.73
2018-03-20T01:06:17.141Z,66.93
2018-03-20T01:08:44.875Z,66.96
2018-03-20T01:11:12.565Z,66.93
2018-03-20T01:13:40.267Z,66.92
2018-03-20T01:16:07.973Z,66.82
2018-03-20T01:18:35.690Z,66.72
2018-03-20T01:21:03.400Z,66.86
2018-03-20T01:23:31.095Z,66.91
2018-03-20T01:25:58.789Z,67.14
2018-03-20T01:28:26.583Z,67.30
2018-03-20T01:30:54.265Z,67.47
2018-03-20T01:33:22.015Z,67.53
2018-03-20T01:35:49.696Z,67.47
2018-03-20T01:38:17.401Z,67.39
2018-03-20T01:40:45.113Z,67.60
2018-03-20T01:43:12.869Z,67.54
2018-03-20T01:45:40.548Z,67.41
2018-03-20T01:48:08.299Z,67.38
2018-03-20T01:50:36.063Z,67.23
2018-03-20T01:53:15.663Z,67.29
2018-03-20T01:55:43.344Z,67.16
2018-03-20T01:58:11.047Z,66.91
2018-03-20T02:00:38.756Z,66.84
2018-03-20T02:03:06.563Z,66.85
2018-03-20T02:05:34.245Z,67.07
2018-03-20T02:08:01.935Z,67.39
2018-03-20T02:10:29.655Z,67.54
2018-03-20T02:12:57.432Z,67.32
2018-03-20T02:15:25.198Z,66.67
2018-03-20T02:17:52.884Z,66.06
2018-03-20T02:20:20.611Z,65.61
2018-03-20T02:22:48.297Z,65.14
2018-03-20T02:25:16.009Z,64.74
2018-03-20T02:27:43.708Z,64.38
2018-03-20T02:30:11.431Z,64.17
2018-03-20T02:32:39.195Z,63.92
2018-03-20T02:35:06.877Z,63.83
2018-03-20T02:37:34.572Z,63.70
2018-03-20T02:40:02.280Z,63.58
2018-03-20T02:42:29.955Z,63.52
2018-03-20T02:44:57.761Z,63.58
2018-03-20T02:47:25.520Z,63.57
2018-03-20T02:49:53.219Z,63.59
2018-03-20T02:52:23.248Z,63.69
2018-03-20T02:54:50.968Z,63.76
2018-03-20T02:57:18.668Z,63.75
2018-03-20T02:59:46.380Z,63.72
2018-03-20T03:02:14.169Z,63.71
2018-03-20T03:04:41.933Z,63.68
2018-03-20T03:07:09.635Z,63.54
2018-03-20T03:09:37.460Z,63.49
2018-03-20T03:12:05.232Z,63.13
2018-03-20T03:14:32.944Z,62.87
2018-03-20T03:17:00.625Z,62.30
2018-03-20T03:19:28.306Z,61.78
2018-03-20T03:21:56.179Z,61.73
2018-03-20T03:24:23.944Z,61.44
2018-03-20T03:26:51.643Z,61.33
2018-03-20T03:29:19.334Z,61.30
2018-03-20T03:31:47.240Z,61.02
2018-03-20T03:34:15.012Z,60.46
2018-03-20T03:36:42.716Z,60.23
2018-03-20T03:39:10.540Z,59.91
2018-03-20T03:41:38.256Z,59.82
2018-03-20T03:44:05.963Z,59.83
2018-03-20T03:46:33.673Z,59.62
2018-03-20T03:49:01.373Z,59.55
2018-03-20T03:51:29.085Z,59.37
2018-03-20T03:53:56.782Z,59.37
2018-03-20T03:56:24.483Z,59.36
2018-03-20T03:58:52.204Z,59.39
2018-03-20T04:01:20.021Z,59.21
2018-03-20T04:03:47.712Z,59.05
2018-03-20T04:06:15.454Z,59.11
2018-03-20T04:08:43.144Z,59.07
2018-03-20T04:11:10.860Z,59.02
2018-03-20T04:13:38.649Z,58.95
2018-03-20T04:16:06.361Z,58.89
2018-03-20T04:18:34.068Z,58.91
2018-03-20T04:21:01.777Z,58.66
2018-03-20T04:23:29.477Z,58.76
2018-03-20T04:25:57.192Z,58.53
2018-03-20T04:28:24.886Z,58.47
2018-03-20T04:30:52.600Z,58.25
2018-03-20T04:33:20.292Z,58.07
2018-03-20T04:35:47.989Z,58.10
2018-03-20T04:38:15.711Z,58.05
2018-03-20T04:40:43.405Z,58.13
2018-03-20T04:43:11.112Z,58.39
2018-03-20T04:45:38.833Z,58.56
2018-03-20T04:48:06.636Z,58.61
2018-03-20T04:50:34.324Z,58.66
2018-03-20T04:53:02.069Z,58.66
2018-03-20T04:55:29.765Z,58.67
2018-03-20T04:57:57.472Z,58.80
2018-03-20T05:00:25.154Z,59.14
2018-03-20T05:02:52.920Z,59.35
2018-03-20T05:05:20.597Z,59.61
2018-03-20T05:07:48.352Z,59.93
2018-03-20T05:10:16.028Z,60.21
2018-03-20T05:12:43.772Z,60.55
2018-03-20T05:15:11.389Z,61.74
2018-03-20T05:17:41.621Z,62.14
2018-03-20T05:23:15.321Z,62.32
2018-03-20T05:25:43.047Z,62.44
2018-03-20T05:28:10.752Z,62.60
2018-03-20T05:30:38.452Z,63.64
2018-03-20T05:33:06.161Z,63.80
2018-03-20T05:35:33.850Z,64.11
2018-03-20T05:38:01.566Z,64.86
2018-03-20T05:40:29.256Z,65.05
2018-03-20T05:42:56.964Z,65.30
2018-03-20T05:45:24.657Z,65.91
2018-03-20T05:47:52.374Z,66.20
2018-03-20T05:53:25.433Z,67.08
2018-03-20T05:55:53.137Z,67.52
2018-03-20T05:58:20.825Z,68.11
2018-03-20T06:00:48.544Z,68.41
2018-03-20T06:03:16.237Z,69.05
2018-03-20T06:05:43.957Z,69.02
2018-03-20T06:08:11.648Z,69.71
2018-03-20T06:10:39.389Z,69.78
2018-03-20T06:13:07.080Z,69.95
2018-03-20T06:15:34.798Z,70.04
2018-03-20T06:18:02.476Z,70.33
2018-03-20T06:20:30.197Z,70.63
2018-03-20T06:22:57.914Z,70.98
2018-03-20T06:25:25.629Z,71.21
2018-03-20T06:27:53.326Z,71.45
2018-03-20T06:30:21.101Z,71.83
2018-03-20T06:32:48.798Z,72.01
2018-03-20T06:35:16.629Z,72.28
2018-03-20T06:37:44.396Z,72.82
2018-03-20T06:40:12.104Z,72.46
2018-03-20T06:42:39.796Z,72.75
2018-03-20T06:45:07.587Z,72.97
2018-03-20T06:47:35.272Z,73.09
2018-03-20T06:50:03.012Z,73.41
2018-03-20T06:52:30.710Z,73.42
2018-03-20T06:54:58.428Z,73.66
2018-03-20T06:57:26.112Z,73.58
2018-03-20T06:59:53.968Z,74.10
2018-03-20T07:02:21.665Z,74.17
2018-03-20T07:04:49.384Z,74.62
2018-03-20T07:07:17.085Z,74.65
2018-03-20T07:09:44.823Z,74.69
2018-03-20T07:12:12.609Z,74.75
2018-03-20T07:14:40.370Z,74.76
2018-03-20T07:17:08.080Z,74.99
2018-03-20T07:19:35.794Z,75.04
2018-03-20T07:22:03.520Z,74.83
2018-03-20T07:24:31.209Z,74.64
2018-03-20T07:26:58.924Z,74.26
2018-03-20T07:29:26.641Z,74.12
2018-03-20T07:31:54.422Z,73.81
2018-03-20T07:34:22.120Z,73.33
2018-03-20T07:36:49.950Z,73.10
2018-03-20T07:39:17.645Z,72.89
2018-03-20T07:41:45.472Z,72.82
2018-03-20T07:44:13.160Z,72.58
2018-03-20T07:46:40.865Z,71.86
2018-03-20T07:49:08.555Z,71.42
2018-03-20T07:51:36.192Z,71.03
2018-03-20T07:54:03.801Z,70.69
2018-03-20T07:56:31.515Z,70.50
2018-03-20T07:58:59.117Z,69.78
2018-03-20T08:01:26.762Z,69.00
2018-03-20T08:03:54.382Z,68.70
2018-03-20T08:06:22.100Z,68.54
2018-03-20T08:08:49.713Z,67.96
2018-03-20T08:11:17.419Z,68.28
2018-03-20T08:13:45.048Z,68.29
2018-03-20T08:16:12.762Z,68.54
2018-03-20T08:18:40.367Z,68.81
2018-03-20T08:21:08.177Z,68.79
2018-03-20T08:23:35.789Z,69.33
2018-03-20T08:26:03.406Z,69.97
2018-03-20T08:28:31.069Z,70.19
2018-03-20T08:30:58.727Z,70.39
2018-03-20T08:33:27.108Z,70.34
2018-03-20T08:35:54.721Z,70.59
2018-03-20T08:38:22.365Z,70.27
2018-03-20T08:40:50.036Z,70.32
2018-03-20T08:43:17.825Z,70.18
2018-03-20T08:45:45.435Z,70.11
2018-03-20T08:48:13.088Z,70.39
2018-03-20T08:50:40.706Z,70.44
2018-03-20T08:53:08.350Z,70.70
2018-03-20T08:55:36.077Z,70.76
2018-03-20T08:58:03.716Z,70.50
2018-03-20T09:00:31.446Z,70.61
2018-03-20T09:02:59.056Z,70.05
2018-03-20T09:05:26.729Z,69.63
2018-03-20T09:07:54.365Z,69.26
2018-03-20T09:10:22.048Z,68.76
2018-03-20T09:12:49.709Z,68.69
2018-03-20T09:15:17.320Z,68.35
2018-03-20T09:17:44.956Z,68.50
2018-03-20T09:20:12.609Z,68.67
2018-03-20T09:22:40.245Z,68.85
2018-03-20T09:25:07.860Z,69.06
2018-03-20T09:27:35.593Z,69.04
2018-03-20T09:30:03.209Z,68.58
2018-03-20T09:32:30.848Z,68.51
2018-03-20T09:34:58.490Z,68.47
2018-03-20T09:37:26.141Z,68.52
2018-03-20T09:39:53.813Z,68.60
2018-03-20T09:42:21.427Z,68.67
2018-03-20T09:44:49.062Z,68.74
2018-03-20T09:47:16.693Z,68.57
2018-03-20T09:49:44.360Z,68.19
2018-03-20T09:52:11.977Z,68.14
2018-03-20T09:54:39.608Z,67.97
2018-03-20T09:57:07.240Z,67.68
2018-03-20T09:59:34.896Z,67.70
2018-03-20T10:02:02.568Z,67.48
2018-03-20T10:04:30.200Z,67.46
2018-03-20T10:06:57.897Z,67.35
2018-03-20T10:09:25.556Z,67.21
2018-03-20T10:11:53.164Z,66.58
2018-03-20T10:14:20.885Z,66.50
2018-03-20T10:16:48.501Z,66.67
2018-03-20T10:19:16.214Z,66.52
2018-03-20T10:21:43.862Z,66.65
2018-03-20T10:24:11.505Z,66.71
2018-03-20T10:26:39.196Z,66.90
2018-03-20T10:29:06.837Z,66.69
2018-03-20T10:31:34.453Z,66.57
2018-03-20T10:34:02.185Z,66.43
2018-03-20T10:36:29.917Z,66.28
2018-03-20T10:38:57.607Z,66.08
2018-03-20T10:41:25.213Z,65.84
2018-03-20T10:43:52.873Z,65.44
2018-03-20T10:46:20.595Z,65.00
2018-03-20T10:48:48.270Z,64.05
2018-03-20T10:51:15.893Z,62.83
2018-03-20T10:53:43.501Z,62.64
2018-03-20T10:56:11.129Z,62.74
2018-03-20T10:58:38.732Z,62.63
2018-03-20T11:01:06.374Z,62.50
2018-03-20T11:03:33.981Z,62.28
2018-03-20T11:06:01.613Z,62.01
2018-03-20T11:08:29.222Z,62.20
2018-03-20T11:10:56.920Z,61.48
2018-03-20T11:13:24.529Z,61.86
2018-03-20T11:15:52.162Z,60.24
2018-03-20T11:18:19.773Z,60.28
2018-03-20T11:20:47.405Z,60.26
2018-03-20T11:23:15.005Z,60.30
2018-03-20T11:25:42.703Z,59.77
2018-03-20T11:28:10.370Z,59.62
2018-03-20T11:30:38.124Z,59.29
2018-03-20T11:33:05.725Z,59.04
2018-03-20T11:35:33.365Z,58.96
2018-03-20T11:38:01.018Z,59.52
2018-03-20T11:40:28.644Z,59.48
2018-03-20T11:42:56.252Z,59.47
2018-03-20T11:45:23.872Z,59.68
2018-03-20T11:47:51.482Z,59.10
2018-03-20T11:50:19.104Z,58.59
2018-03-20T11:52:46.788Z,58.21
2018-03-20T11:55:14.416Z,57.98
2018-03-20T11:57:42.107Z,58.15
2018-03-20T12:00:09.780Z,58.19
2018-03-20T12:02:37.445Z,57.31
2018-03-20T12:05:05.099Z,58.21
2018-03-20T12:07:32.745Z,58.79
2018-03-20T12:10:00.430Z,58.94
2018-03-20T12:12:28.061Z,58.55
2018-03-20T12:14:55.752Z,58.69
2018-03-20T12:17:23.415Z,58.81
2018-03-20T12:19:51.104Z,57.83
2018-03-20T12:22:18.740Z,58.39
2018-03-20T12:24:46.340Z,58.98
2018-03-20T12:27:14.068Z,58.78
2018-03-20T12:29:41.677Z,59.08
2018-03-20T12:32:09.309Z,58.43
2018-03-20T12:34:36.912Z,58.47
2018-03-20T12:37:04.532Z,58.33
2018-03-20T12:39:32.133Z,58.41
2018-03-20T12:41:59.761Z,58.32
2018-03-20T12:44:27.407Z,57.86
2018-03-20T12:46:55.037Z,57.77
2018-03-20T12:49:22.638Z,57.86
2018-03-20T12:51:50.287Z,57.48
2018-03-20T12:54:17.957Z,57.45
2018-03-20T12:56:45.589Z,57.25
2018-03-20T12:59:13.192Z,57.21
2018-03-20T13:01:40.823Z,57.23
2018-03-20T13:04:08.505Z,57.55
2018-03-20T13:06:36.174Z,57.70
2018-03-20T13:09:03.813Z,57.48
2018-03-20T13:11:31.420Z,57.29
2018-03-20T13:13:59.157Z,57.16
2018-03-20T13:16:26.820Z,56.86
2018-03-20T13:18:54.447Z,56.87
2018-03-20T13:21:22.156Z,57.48
2018-03-20T13:23:49.780Z,56.72
2018-03-20T13:26:17.480Z,56.64
2018-03-20T13:28:45.145Z,56.34
2018-03-20T13:31:12.744Z,56.43
2018-03-20T13:33:40.370Z,56.91
2018-03-20T13:36:08.024Z,56.82
2018-03-20T13:38:35.695Z,56.23
2018-03-20T13:41:03.297Z,56.22
2018-03-20T13:43:30.924Z,55.98
2018-03-20T13:45:58.532Z,55.92
2018-03-20T13:48:26.155Z,55.95
2018-03-20T13:50:53.763Z,56.11
2018-03-20T13:53:23.312Z,54.62
2018-03-20T13:55:50.918Z,54.96
2018-03-20T13:58:18.549Z,54.93
2018-03-20T14:00:46.149Z,55.17
2018-03-20T14:03:13.858Z,55.11
2018-03-20T14:05:42.027Z,55.37
2018-03-20T14:08:09.691Z,55.30
2018-03-20T14:10:37.298Z,55.32
2018-03-20T14:13:05.018Z,55.19
2018-03-20T14:15:32.629Z,55.37
2018-03-20T14:18:00.241Z,55.33
2018-03-20T14:20:28.009Z,55.34
2018-03-20T14:22:55.628Z,55.30
2018-03-20T14:25:23.247Z,55.63
2018-03-20T14:27:50.848Z,55.64
2018-03-20T14:30:18.561Z,56.05
2018-03-20T14:32:46.219Z,55.92
2018-03-20T14:35:13.852Z,55.71
2018-03-20T14:37:41.552Z,56.20
2018-03-20T14:40:09.210Z,55.64
2018-03-20T14:42:36.825Z,55.09
2018-03-20T14:45:04.543Z,55.09
2018-03-20T14:47:32.148Z,54.91
2018-03-20T14:49:59.872Z,55.06
2018-03-20T14:52:27.484Z,54.16
2018-03-20T14:54:55.335Z,53.90
2018-03-20T14:57:22.920Z,54.84
2018-03-20T14:59:50.621Z,54.93
2018-03-20T15:02:18.288Z,55.09
2018-03-20T15:04:45.961Z,54.54
2018-03-20T15:07:13.621Z,54.26
2018-03-20T15:09:41.257Z,54.34
2018-03-20T15:12:08.864Z,53.84
2018-03-20T15:14:36.496Z,54.21
2018-03-20T15:17:04.100Z,54.00
2018-03-20T15:19:31.725Z,54.55
2018-03-20T15:21:59.333Z,54.60
2018-03-20T15:24:26.981Z,53.16
2018-03-20T15:26:54.589Z,52.46
2018-03-20T15:29:22.201Z,52.51
2018-03-20T15:31:49.832Z,53.16
2018-03-20T15:34:17.440Z,54.13
2018-03-20T15:36:45.069Z,54.75
2018-03-20T15:39:12.663Z,55.24
2018-03-20T15:41:40.398Z,55.59
2018-03-20T15:44:08.000Z,55.94
2018-03-20T15:46:35.626Z,56.16
2018-03-20T15:49:03.272Z,56.15
2018-03-20T15:51:30.904Z,55.24
2018-03-20T15:53:58.504Z,54.84
2018-03-20T15:56:26.155Z,54.86
2018-03-20T15:58:53.764Z,54.90
2018-03-20T16:01:21.396Z,55.09
2018-03-20T16:03:49.289Z,55.77
2018-03-20T16:06:16.905Z,55.07
2018-03-20T16:08:44.575Z,54.89
2018-03-20T16:11:12.244Z,55.11
2018-03-20T16:13:39.908Z,54.92
2018-03-20T16:16:07.568Z,54.93
2018-03-20T16:18:35.174Z,54.97
2018-03-20T16:21:02.902Z,55.23
2018-03-20T16:23:30.508Z,55.54
2018-03-20T16:25:58.454Z,55.56
2018-03-20T16:28:26.052Z,55.97
2018-03-20T16:30:53.753Z,56.09
2018-03-20T16:33:21.391Z,55.96
2018-03-20T16:35:49.008Z,55.93
2018-03-20T16:38:16.644Z,56.11
2018-03-20T16:40:44.304Z,56.28
2018-03-20T16:43:11.937Z,56.28
2018-03-20T16:45:39.637Z,56.44
2018-03-20T16:48:07.261Z,56.60
2018-03-20T16:50:34.953Z,56.77
2018-03-20T16:53:02.589Z,56.96
2018-03-20T16:55:30.290Z,57.18
2018-03-20T16:57:57.958Z,57.34
2018-03-20T17:00:25.609Z,57.54
2018-03-20T17:02:53.277Z,57.64
2018-03-20T17:05:20.945Z,57.84
2018-03-20T17:07:48.572Z,57.96
2018-03-20T17:10:16.172Z,58.05
2018-03-20T17:12:43.805Z,58.14
2018-03-20T17:15:11.418Z,58.23
2018-03-20T17:17:39.152Z,58.38
2018-03-20T17:20:06.765Z,58.57
2018-03-20T17:22:34.574Z,58.69
2018-03-20T17:25:02.239Z,58.88
2018-03-20T17:27:29.880Z,59.18
2018-03-20T17:29:57.570Z,59.35
2018-03-20T17:32:25.201Z,59.47
2018-03-20T17:34:52.809Z,59.69
2018-03-20T17:37:20.432Z,59.99
2018-03-20T17:39:48.117Z,60.30
2018-03-20T17:42:15.749Z,60.39
2018-03-20T17:44:43.352Z,60.62
2018-03-20T17:47:11.001Z,60.97
2018-03-20T17:49:38.612Z,61.50
2018-03-20T17:52:06.340Z,61.67
2018-03-20T17:54:33.948Z,61.78
2018-03-20T17:57:01.656Z,61.95
2018-03-20T17:59:29.366Z,62.10
2018-03-20T18:01:57.057Z,62.23
2018-03-20T18:04:24.853Z,62.33
2018-03-20T18:06:52.541Z,62.44
2018-03-20T18:09:20.264Z,62.44
2018-03-20T18:11:48.054Z,62.65
2018-03-20T18:14:15.781Z,62.59
2018-03-20T18:16:43.576Z,62.74
2018-03-20T18:19:11.352Z,62.86
2018-03-20T18:21:39.041Z,63.10
2018-03-20T18:24:06.742Z,63.33
2018-03-20T18:26:34.438Z,63.66
2018-03-20T18:29:02.200Z,63.89
2018-03-20T18:31:29.859Z,64.09
2018-03-20T18:33:57.632Z,64.25
2018-03-20T18:36:25.325Z,64.30
2018-03-20T18:38:53.031Z,64.41
2018-03-20T18:41:20.725Z,64.46
2018-03-20T18:43:48.483Z,64.61
2018-03-20T18:46:16.173Z,64.65
2018-03-20T18:48:43.892Z,64.68
2018-03-20T18:51:11.577Z,64.96
2018-03-20T18:53:39.265Z,65.20
2018-03-20T18:56:07.008Z,65.21
2018-03-20T18:58:34.772Z,65.37
2018-03-20T19:01:02.532Z,65.52
2018-03-20T19:03:30.300Z,65.63
2018-03-20T19:05:58.209Z,65.80
2018-03-20T19:08:25.932Z,66.01
2018-03-20T19:10:53.648Z,65.99
2018-03-20T19:13:21.332Z,65.94
2018-03-20T19:15:49.228Z,66.03
2018-03-20T19:18:17.006Z,66.18
2018-03-20T19:20:44.764Z,66.34
2018-03-20T19:23:12.461Z,66.46
2018-03-20T19:25:40.192Z,66.53
2018-03-20T19:28:07.881Z,66.59
2018-03-20T19:30:35.617Z,66.80
2018-03-20T19:33:03.346Z,67.15
2018-03-20T19:35:31.050Z,67.31
2018-03-20T19:37:58.765Z,67.43
2018-03-20T19:40:26.444Z,67.54
2018-03-20T19:42:54.144Z,67.68
2018-03-20T19:45:21.824Z,67.76
2018-03-20T19:47:49.577Z,67.78
2018-03-20T19:50:17.267Z,67.80
2018-03-20T19:52:44.980Z,68.03
2018-03-20T19:55:12.760Z,68.13
2018-03-20T19:57:40.524Z,68.24
2018-03-20T20:00:08.209Z,68.35
2018-03-20T20:02:35.929Z,68.43
2018-03-20T20:05:03.612Z,68.52
2018-03-20T20:07:31.388Z,68.71
2018-03-20T20:09:59.082Z,68.67
2018-03-20T20:12:26.798Z,68.81
2018-03-20T20:14:54.485Z,68.84
2018-03-20T20:17:22.245Z,68.86
2018-03-20T20:19:50.008Z,69.02
2018-03-20T20:22:17.693Z,69.21
2018-03-20T20:24:45.436Z,69.45
2018-03-20T20:27:13.128Z,69.76
2018-03-20T20:29:40.843Z,69.94
2018-03-20T20:32:08.637Z,70.11
2018-03-20T20:34:36.413Z,70.11
2018-03-20T20:37:04.160Z,70.16
2018-03-20T20:39:31.933Z,70.24
2018-03-20T20:41:59.616Z,70.09
2018-03-20T20:44:27.348Z,69.95
2018-03-20T20:46:55.037Z,70.01
2018-03-20T20:49:22.781Z,70.08
2018-03-20T20:51:50.477Z,70.03
2018-03-20T20:54:18.198Z,70.08
2018-03-20T20:56:45.884Z,70.09
2018-03-20T20:59:13.592Z,70.12
2018-03-20T21:01:41.279Z,70.18
2018-03-20T21:04:08.996Z,70.31
2018-03-20T21:06:36.764Z,70.46
2018-03-20T21:09:04.488Z,70.59
2018-03-20T21:11:32.188Z,70.58
2018-03-20T21:13:59.925Z,70.68
2018-03-20T21:16:27.637Z,70.92
2018-03-20T21:18:55.352Z,70.85
2018-03-20T21:21:23.121Z,70.74
2018-03-20T21:23:50.804Z,70.75
2018-03-20T21:26:18.508Z,70.90
2018-03-20T21:28:46.192Z,71.08
2018-03-20T21:31:13.888Z,71.41
2018-03-20T21:33:41.577Z,71.14
2018-03-20T21:36:09.409Z,71.08
2018-03-20T21:38:37.164Z,71.05
2018-03-20T21:41:04.863Z,71.10
2018-03-20T21:43:32.551Z,70.85
2018-03-20T21:46:00.849Z,70.77
2018-03-20T21:48:28.597Z,70.64
2018-03-20T21:50:56.296Z,70.87
2018-03-20T21:53:23.993Z,71.69
2018-03-20T21:55:51.724Z,72.06
2018-03-20T21:58:19.488Z,71.91
2018-03-20T22:00:47.354Z,71.92
2018-03-20T22:03:15.046Z,72.10
2018-03-20T22:05:42.752Z,72.22
2018-03-20T22:08:10.439Z,72.23
2018-03-20T22:10:38.216Z,72.33
2018-03-20T22:13:05.909Z,72.27
2018-03-20T22:15:33.644Z,72.31
2018-03-20T22:18:01.337Z,72.17
2018-03-20T22:20:29.042Z,72.22
2018-03-20T22:22:56.733Z,72.12
2018-03-20T22:25:24.436Z,72.42
2018-03-20T22:27:52.178Z,72.28
2018-03-20T22:30:19.938Z,72.55
2018-03-20T22:32:47.687Z,72.77
2018-03-20T22:35:15.375Z,72.66
2018-03-20T22:37:43.129Z,72.60
2018-03-20T22:40:10.812Z,72.36
2018-03-20T22:42:38.554Z,72.22
2018-03-20T22:45:06.254Z,72.38
2018-03-20T22:47:33.979Z,72.46
2018-03-20T22:50:01.652Z,72.19
2018-03-20T22:52:29.365Z,72.18
2018-03-20T22:54:57.039Z,72.19
2018-03-20T22:57:24.831Z,72.52
2018-03-20T22:59:52.507Z,72.76
2018-03-20T23:02:20.212Z,72.62
2018-03-20T23:04:47.898Z,73.25
2018-03-20T23:07:15.688Z,73.51
2018-03-20T23:09:43.368Z,73.45
2018-03-20T23:12:11.077Z,73.04
2018-03-20T23:14:38.765Z,72.79
2018-03-20T23:17:06.467Z,72.78
2018-03-20T23:19:34.212Z,72.63
2018-03-20T23:22:01.983Z,72.61
2018-03-20T23:24:29.697Z,72.64
2018-03-20T23:26:57.514Z,72.80
2018-03-20T23:29:25.209Z,73.11
2018-03-20T23:31:52.916Z,73.04
2018-03-20T23:34:20.611Z,72.75
2018-03-20T23:36:48.369Z,72.64
2018-03-20T23:39:16.805Z,72.43
2018-03-20T23:41:44.516Z,72.68
2018-03-20T23:44:12.281Z,72.69
2018-03-20T23:46:39.997Z,72.79
2018-03-20T23:49:07.701Z,72.83
2018-03-20T23:51:35.464Z,72.81
2018-03-20T23:54:03.189Z,72.89
2018-03-20T23:56:30.882Z,73.24
2018-03-20T23:58:58.663Z,73.35
